Flight Track Log - Related Links

Times and Time Zones

All times are in EDT time to prevent confusion due to time zone crossing. See the KLM1596 flight status page for this flight to view local times or setup timezone preferences in your user account.

Time Position Orientation Groundspeed Altitude Reporting Facility
EDT Latitude Longitude Course Direction KTS MPH feet Rate Location/Type
Sun 12:45:19 AM 42.9650 10.5130 325° Northwest 393 452 36,800  Level FlightAware ADS-B
Sun 12:46:07 AM 43.0570 10.4240 325° Northwest 388 447 37,900 774 Climbing FlightAware ADS-B
Sun 12:46:52 AM 43.1300 10.3550 325° Northwest 391 450 38,000 70 Climbing FlightAware ADS-B
Sun 12:47:33 AM 43.1930 10.2950 325° Northwest 392 451 38,000  Level FlightAware ADS-B
Sun 12:48:15 AM 43.2560 10.2340 325° Northwest 393 452 38,000  Level FlightAware ADS-B
Sun 12:48:55 AM 43.3150 10.1760 324° Northwest 392 451 38,000  Level FlightAware ADS-B
Sun 12:49:39 AM 43.3800 10.1150 326° Northwest 390 449 38,000  Level FlightAware ADS-B
Sun 12:50:19 AM 43.4390 10.0580 325° Northwest 390 449 38,000  Level FlightAware ADS-B
Sun 12:51:13 AM 43.5200 9.9790 325° Northwest 390 449 38,000  Level FlightAware ADS-B
Sun 12:51:50 AM 43.5680 9.9310 324° Northwest 390 449 38,000  Level FlightAware ADS-B
Sun 12:52:44 AM 43.6520 9.8500 325° Northwest 391 450 38,000  Level FlightAware ADS-B
Sun 12:53:30 AM 43.7210 9.7830 325° Northwest 394 453 38,000  Level FlightAware ADS-B
Sun 12:54:07 AM 43.7730 9.7320 325° Northwest 395 455 38,000  Level FlightAware ADS-B
Sun 12:54:50 AM 43.8400 9.6660 325° Northwest 397 457 38,000  Level FlightAware ADS-B
Sun 12:57:00 AM 44.0479 9.5644 341° North  Level Estimated
Sun 12:57:22 AM 44.0680 9.4390 341° North 398 458 38,000  Level FlightAware ADS-B
Sun 01:00:00 AM 44.3213 9.3171 341° North  Level Estimated
Sun 01:01:00 AM 44.4174 9.2705 341° North  Level Estimated
Sun 01:02:00 AM 44.5135 9.2238 341° North  Level Estimated
Sun 01:03:00 AM 44.6096 9.1769 341° North  Level Estimated
Sun 01:03:39 AM 44.6050 8.8610 341° North 389 448 38,000  Level FlightAware ADS-B
Sun 01:04:22 AM 44.6680 8.7830 319° Northwest 389 448 38,000  Level FlightAware ADS-B
Sun 01:05:03 AM 44.7220 8.7160 319° Northwest 389 448 38,000  Level FlightAware ADS-B
Sun 01:05:41 AM 44.7760 8.6490 319° Northwest 389 448 38,000  Level FlightAware ADS-B
Sun 01:06:21 AM 44.8310 8.5810 319° Northwest 390 449 38,000  Level FlightAware ADS-B
Sun 01:07:17 AM 44.9060 8.4870 318° Northwest 390 449 38,000  Level FlightAware ADS-B
Sun 01:08:42 AM 45.0200 8.3430 318° Northwest 390 449 38,000  Level FlightAware ADS-B
Sun 01:09:26 AM 45.0780 8.2700 318° Northwest 390 449 38,000  Level FlightAware ADS-B
Sun 01:11:39 AM 45.2560 8.0420 318° Northwest 391 450 38,000  Level FlightAware ADS-B
Sun 01:12:26 AM 45.3200 7.9600 318° Northwest 392 451 38,000  Level FlightAware ADS-B
Sun 01:13:12 AM 45.3880 7.8900 324° Northwest 391 450 38,000  Level FlightAware ADS-B
Sun 01:13:52 AM 45.4480 7.8360 328° Northwest 392 451 38,000  Level FlightAware ADS-B
Sun 01:14:32 AM 45.5100 7.7800 328° Northwest 393 452 38,000  Level FlightAware ADS-B
Sun 01:15:16 AM 45.5790 7.7170 327° Northwest 394 453 38,000  Level FlightAware ADS-B
Sun 01:15:51 AM 45.6360 7.6750 333° Northwest 397 457 38,000  Level FlightAware ADS-B
Sun 01:16:36 AM 45.7120 7.6330 339° North 397 457 38,000  Level FlightAware ADS-B
Sun 01:17:11 AM 45.7720 7.5970 337° Northwest 397 457 38,000  Level FlightAware ADS-B
Sun 01:17:59 AM 45.8540 7.5500 338° Northwest 399 459 38,000  Level FlightAware ADS-B
Sun 01:18:41 AM 45.9250 7.5090 338° Northwest 400 460 38,000  Level FlightAware ADS-B
Sun 01:19:21 AM 45.9940 7.4700 339° North 399 459 38,000  Level FlightAware ADS-B
Sun 01:20:01 AM 46.0650 7.4280 338° Northwest 400 460 38,000  Level FlightAware ADS-B
Sun 01:21:19 AM 46.1980 7.3510 338° Northwest 400 460 38,000  Level FlightAware ADS-B
Sun 01:21:57 AM 46.2640 7.3130 338° Northwest 400 460 38,000  Level FlightAware ADS-B
Sun 01:22:57 AM 46.3670 7.2520 338° Northwest 400 460 38,000  Level FlightAware ADS-B
Sun 01:23:43 AM 46.4430 7.2070 338° Northwest 400 460 38,000  Level FlightAware ADS-B
Sun 01:24:23 AM 46.5140 7.1660 338° Northwest 401 461 38,000  Level FlightAware ADS-B
Sun 01:25:03 AM 46.5810 7.1260 338° Northwest 401 461 38,000  Level FlightAware ADS-B
Sun 01:25:45 AM 46.6540 7.0830 338° Northwest 402 463 38,000  Level FlightAware ADS-B
Sun 01:26:25 AM 46.7240 7.0410 338° Northwest 403 464 38,000  Level FlightAware ADS-B
Sun 01:27:13 AM 46.8070 6.9920 338° Northwest 404 465 38,000  Level FlightAware ADS-B
Sun 01:27:53 AM 46.8740 6.9510 337° Northwest 403 464 38,000  Level FlightAware ADS-B
Sun 01:28:37 AM 46.9520 6.9080 339° North 406 467 38,000  Level FlightAware ADS-B
Sun 01:29:15 AM 47.0240 6.8880 349° North 408 470 38,000  Level FlightAware ADS-B
Sun 01:29:57 AM 47.1020 6.8680 350° North 409 471 38,000  Level FlightAware ADS-B
Sun 01:30:50 AM 47.2010 6.8430 350° North 410 472 38,000  Level FlightAware ADS-B
Sun 01:31:33 AM 47.2810 6.8230 350° North 411 473 38,000  Level FlightAware ADS-B
Sun 01:32:18 AM 47.3650 6.8010 350° North 411 473 38,000  Level FlightAware ADS-B
Sun 01:32:56 AM 47.4380 6.7830 351° North 413 475 38,000  Level FlightAware ADS-B
Sun 01:33:38 AM 47.5140 6.7630 350° North 414 476 38,000  Level FlightAware ADS-B
Sun 01:34:22 AM 47.6000 6.7410 350° North 415 478 38,000  Level FlightAware ADS-B
Sun 01:35:02 AM 47.6730 6.7220 350° North 415 478 38,000  Level FlightAware ADS-B
Sun 01:35:38 AM 47.7440 6.7040 350° North 414 476 38,000  Level FlightAware ADS-B
Sun 01:36:24 AM 47.8300 6.6820 350° North 411 473 38,000  Level FlightAware ADS-B
Sun 01:37:06 AM 47.9030 6.6620 350° North 408 470 38,000  Level FlightAware ADS-B
Sun 01:37:54 AM 47.9960 6.6380 350° North 404 465 38,000  Level FlightAware ADS-B
Sun 01:38:28 AM 48.0600 6.6210 350° North 405 466 38,000  Level FlightAware ADS-B
Sun 01:39:18 AM 48.1510 6.5970 350° North 408 470 38,000  Level FlightAware ADS-B
Sun 01:39:58 AM 48.2270 6.5780 351° North 408 470 38,000  Level FlightAware ADS-B
Sun 01:40:32 AM 48.2880 6.5610 349° North 408 470 38,000  Level FlightAware ADS-B
Sun 01:41:36 AM 48.4090 6.5290 350° North 410 472 38,000  Level FlightAware ADS-B
Sun 01:42:20 AM 48.4890 6.5080 350° North 411 473 38,000  Level FlightAware ADS-B
Sun 01:42:59 AM 48.5620 6.4880 350° North 413 475 38,000  Level FlightAware ADS-B
Sun 01:43:47 AM 48.6540 6.4630 350° North 417 480 38,000  Level FlightAware ADS-B
Sun 01:44:26 AM 48.7290 6.4430 350° North 418 481 38,000  Level FlightAware ADS-B
Sun 01:45:06 AM 48.8040 6.4220 350° North 420 483 38,000  Level FlightAware ADS-B
Sun 01:45:32 AM 48.8520 6.4100 351° North 421 484 38,000  Level FlightAware ADS-B
Sun 01:46:42 AM 48.9830 6.3540 344° North 411 473 38,000  Level FlightAware ADS-B
Sun 01:47:18 AM 49.0360 6.3060 329° Northwest 410 472 38,000  Level FlightAware ADS-B
Sun 01:48:06 AM 49.1220 6.2270 329° Northwest 408 470 38,000  Level FlightAware ADS-B
Sun 01:48:50 AM 49.1910 6.1650 330° Northwest 406 467 38,000  Level FlightAware ADS-B
Sun 01:49:30 AM 49.2520 6.1080 329° Northwest 406 467 38,000  Level FlightAware ADS-B
Sun 01:50:44 AM 49.3740 5.9970 329° Northwest 400 460 38,000  Level FlightAware ADS-B
Sun 01:51:19 AM 49.4330 5.9440 330° Northwest 409 471 38,000  Level FlightAware ADS-B
Sun 01:52:14 AM 49.5220 5.8610 329° Northwest 411 473 38,000  Level FlightAware ADS-B
Sun 01:52:59 AM 49.5930 5.7960 329° Northwest 413 475 38,000  Level FlightAware ADS-B
Sun 01:53:44 AM 49.6670 5.7260 329° Northwest 414 476 38,000  Level FlightAware ADS-B
Sun 01:54:24 AM 49.7320 5.6660 329° Northwest 414 476 38,000  Level FlightAware ADS-B
Sun 01:55:09 AM 49.8070 5.5950 329° Northwest 414 476 38,000 -214 Level FlightAware ADS-B
Sun 01:56:16 AM 49.9180 5.4910 329° Northwest 413 475 37,600 -864 Descending FlightAware ADS-B
Sun 01:57:14 AM 50.0120 5.4030 329° Northwest 412 474 36,200 -1,471 Descending FlightAware ADS-B
Sun 01:57:58 AM 50.0850 5.3330 328° Northwest 415 478 35,100 -1,500 Descending FlightAware ADS-B
Sun 01:58:38 AM 50.1500 5.2700 328° Northwest 419 482 34,100 -1,429 Descending FlightAware ADS-B
Sun 01:59:22 AM 50.2240 5.2000 329° Northwest 421 484 33,100 -1,395 Descending FlightAware ADS-B
Sun 02:00:04 AM 50.2930 5.1340 329° Northwest 416 479 32,100 -805 Descending FlightAware ADS-B
Sun 02:00:44 AM 50.3570 5.0710 328° Northwest 413 475 32,000 -366 Descending FlightAware ADS-B
Sun 02:01:26 AM 50.4260 5.0060 329° Northwest 411 473 31,600 -600 Descending FlightAware ADS-B
Sun 02:02:04 AM 50.4860 4.9480 328° Northwest 407 468 31,200 -628 Descending FlightAware ADS-B
Sun 02:02:52 AM 50.5630 4.8720 328° Northwest 405 466 30,700 -667 Descending FlightAware ADS-B
Sun 02:03:34 AM 50.6300 4.8060 328° Northwest 405 466 30,200 -675 Descending FlightAware ADS-B
Sun 02:04:12 AM 50.6920 4.7470 329° Northwest 402 463 29,800 -1,350 Descending FlightAware ADS-B
Sun 02:04:54 AM 50.7550 4.6840 328° Northwest 396 456 28,400 -2,089 Descending FlightAware ADS-B
Sun 02:06:04 AM 50.8620 4.5780 328° Northwest 381 438 25,900 -1,875 Descending FlightAware ADS-B
Sun 02:06:46 AM 50.9190 4.5060 321° Northwest 369 425 24,900 -1,133 Descending FlightAware ADS-B
Sun 02:07:34 AM 50.9690 4.4050 308° West 366 421 24,200 -951 Descending FlightAware ADS-B
Sun 02:08:08 AM 51.0071 4.3319 308° West 402 463 23,600 -900 Descending FlightAware UK
Sun 02:08:14 AM 51.0140 4.3180 308° West 362 417 23,600 -783 Level FlightAware ADS-B
Sun 02:08:54 AM 51.0550 4.2360 308° West 361 415 23,000 -878 Descending FlightAware ADS-B
Sun 02:08:55 AM 51.0572 4.2320 308° West 398 458 23,000 -837 Level FlightAware UK
Sun 02:09:37 AM 51.0999 4.1443 308° West 396 456 22,400 -800 Descending FlightAware UK
Sun 02:09:40 AM 51.1020 4.1410 308° West 359 413 22,400 -769 Level FlightAware ADS-B
Sun 02:10:16 AM 51.1400 4.0640 308° West 357 411 21,900 -805 Descending FlightAware ADS-B
Sun 02:11:02 AM 51.1840 3.9740 308° West 349 402 21,300 -815 Descending FlightAware ADS-B
Sun 02:11:37 AM 51.2308 3.9139 308° West 384 442 20,800 -837 Descending FlightAware UK
Sun 02:11:45 AM 51.2420 3.9090 308° West 360 414 20,700 -529 Descending FlightAware ADS-B
Sun 02:12:11 AM 51.2780 3.9120 North 359 413 20,500 -828 Descending FlightAware ADS-B
Sun 02:12:43 AM 51.3408 3.9354 North 382 440 19,900 -837 Descending FlightAware UK
Sun 02:12:54 AM 51.3550 3.9390 North 364 419 19,900 -857 Level FlightAware ADS-B
Sun 02:13:25 AM 51.4091 3.9585 North 376 433 19,300 -1,143 Descending FlightAware UK
Sun 02:13:36 AM 51.4240 3.9620 North 355 409 19,100 -1,412 Descending FlightAware ADS-B
Sun 02:14:16 AM 51.4870 3.9840 12° North 349 402 18,100 -1,714 Descending FlightAware ADS-B
Sun 02:15:00 AM 51.5540 4.0070 12° North 344 396 16,700 -2,000 Descending FlightAware ADS-B
Sun 02:15:40 AM 51.6190 4.0300 12° North 337 388 15,300 -2,000 Descending FlightAware ADS-B
Sun 02:16:24 AM 51.6850 4.0530 12° North 330 380 13,900 -1,909 Descending FlightAware ADS-B
Sun 02:17:08 AM 51.7460 4.0740 12° North 324 373 12,500 -1,929 Descending FlightAware ADS-B
Sun 02:17:48 AM 51.8050 4.0950 12° North 321 369 11,200 -1,714 Descending FlightAware ADS-B
Sun 02:18:32 AM 51.8640 4.1510 30° Northeast 312 359 10,100 -1,147 Descending FlightAware ADS-B
Sun 02:18:56 AM 51.8900 4.1840 38° Northeast 293 337 9,900 -732 Descending FlightAware ADS-B
Sun 02:19:13 AM 51.9070 4.2070 40° Northeast 287 330 9,600 -955 Descending FlightAware ADS-B
Sun 02:19:40 AM 51.9360 4.2420 37° Northeast 282 325 9,200 -882 Descending FlightAware ADS-B
Sun 02:20:21 AM 51.9770 4.2950 39° Northeast 280 322 8,600 -808 Descending FlightAware ADS-B
Sun 02:20:32 AM 51.9890 4.3110 39° Northeast 281 323 8,500 -649 Descending FlightAware ADS-B
Sun 02:20:58 AM 52.0150 4.3440 38° Northeast 272 313 8,200 -750 Descending FlightAware ADS-B
Sun 02:21:28 AM 52.0440 4.3800 37° Northeast 270 311 7,800 -750 Descending FlightAware ADS-B
Sun 02:22:02 AM 52.0780 4.4240 38° Northeast 269 310 7,400 -590 Descending FlightAware ADS-B
Sun 02:22:29 AM 52.1030 4.4560 38° Northeast 267 307 7,200 -462 Descending FlightAware ADS-B
Sun 02:22:54 AM 52.1280 4.4880 38° Northeast 267 307 7,000 -226 Descending FlightAware ADS-B
Sun 02:23:22 AM 52.1560 4.5240 38° Northeast 264 304 7,000  Level FlightAware ADS-B
Sun 02:23:50 AM 52.1830 4.5580 38° Northeast 264 304 7,000  Level FlightAware ADS-B
Sun 02:24:19 AM 52.2080 4.5900 38° Northeast 264 304 7,000  Level FlightAware ADS-B
Sun 02:24:32 AM 52.2230 4.6090 38° Northeast 264 304 7,000  Level FlightAware ADS-B
Sun 02:24:58 AM 52.2480 4.6410 38° Northeast 265 305 7,000  Level FlightAware ADS-B
Sun 02:25:27 AM 52.2670 4.6660 39° Northeast 265 305 7,000  Level FlightAware ADS-B
Sun 02:25:53 AM 52.2950 4.7020 38° Northeast 264 304 7,000  Level FlightAware ADS-B
Sun 02:26:23 AM 52.3300 4.7470 38° Northeast 267 307 7,000 -500 Level FlightAware ADS-B
Sun 02:26:53 AM 52.3560 4.7870 43° Northeast 268 308 6,500 -1,241 Descending FlightAware ADS-B
Sun 02:27:21 AM 52.3810 4.8260 44° Northeast 269 310 5,800 -1,429 Descending FlightAware ADS-B
Sun 02:27:35 AM 52.3960 4.8490 43° Northeast 268 308 5,500 -878 Descending FlightAware ADS-B
Sun 02:28:02 AM 52.4200 4.8850 42° Northeast 266 306 5,200 -750 Descending FlightAware ADS-B
Sun 02:28:31 AM 52.4460 4.9230 42° Northeast 262 302 4,800 -818 Descending FlightAware ADS-B
Sun 02:28:46 AM 52.4620 4.9320 19° North 249 287 4,600 -889 Descending FlightAware ADS-B
Sun 02:28:58 AM 52.4760 4.9340 North 242 278 4,400 -900 Descending FlightAware ADS-B
Sun 02:29:26 AM 52.5070 4.9370 North 234 269 4,000 -857 Descending FlightAware ADS-B
Sun 02:29:54 AM 52.5370 4.9400 North 231 266 3,600 -828 Descending FlightAware ADS-B
Sun 02:30:24 AM 52.5610 4.9150 328° Northwest 201 231 3,200 -750 Descending FlightAware ADS-B
Sun 02:30:34 AM 52.5630 4.8990 282° West 194 223 3,100 -474 Descending FlightAware ADS-B
Sun 02:31:02 AM 52.5580 4.8630 257° West 178 205 2,900 -346 Descending FlightAware ADS-B
Sun 02:31:26 AM 52.5540 4.8300 259° West 167 192 2,800 -130 Descending FlightAware ADS-B
Sun 02:31:48 AM 52.5500 4.8040 256° West 166 191 2,800  Level FlightAware ADS-B
Sun 02:31:58 AM 52.5450 4.7930 233° Southwest 171 197 2,800  Level FlightAware ADS-B
Sun 02:32:28 AM 52.5250 4.7720 213° Southwest 174 200 2,800  Level FlightAware ADS-B
Sun 02:32:56 AM 52.5030 4.7570 203° Southwest 183 211 2,800 -207 Level FlightAware ADS-B
Sun 02:33:26 AM 52.4770 4.7530 185° South 187 215 2,600 -724 Descending FlightAware ADS-B
Sun 02:33:54 AM 52.4530 4.7510 183° South 186 214 2,100 -1,000 Descending FlightAware ADS-B
Sun 02:34:20 AM 52.4310 4.7490 183° South 184 212 1,700 -964 Descending FlightAware ADS-B
Sun 02:34:50 AM 52.4060 4.7470 183° South 185 213 1,200 -831 Descending FlightAware ADS-B
Sun 02:35:25 AM 52.3810 4.7450 183° South 161 185 800 -844 Descending FlightAware ADS-B
Sun 02:35:54 AM 52.3590 4.7430 183° South 129 148 300 -1,034 Descending FlightAware ADS-B
Sun 02:36:28 AM 52.3370 4.7410 183° South 133 153 -529 Descending FlightAware ADS-B
Sun 02:36:53 AM 52.3210 4.7390 184° South 110 127  Level FlightAware ADS-B
Sun 02:37:18 AM 52.3140 4.7380 185° South 29 33  Level FlightAware ADS-B
Sun 02:37:48 AM 52.3110 4.7400 158° South 24 28  Level FlightAware ADS-B
Sun 02:38:03 AM 52.3090 4.7410 163° South 26 30  Level FlightAware ADS-B
Sun 02:38:43 AM 52.3040 4.7410 180° South 20 23  Level FlightAware ADS-B
Sun 02:39:13 AM 52.3030 4.7440 119° Southeast 19 22  Level FlightAware ADS-B
Sun 02:39:38 AM 52.3010 4.7470 137° Southeast 26 30  Level FlightAware ADS-B
Sun 02:42:00 AM 52.3086 4.7639 54° Northeast  Level Estimated
Sun 02:43:00 AM 52.3086 4.7639 348° North  Level Estimated
Sun 02:44:00 AM 52.3086 4.7639 348° North  Level Estimated
Sun 02:45:00 AM 52.3086 4.7639 348° North  Level Estimated
Sun 02:46:00 AM 52.3086 4.7639 348° North  Level Estimated

Login

Don't have an account? Register now (free) for customized features, flight alerts, and more!